createdAt,value
2023-10-07T00:01:46.778Z,58.34
2023-10-07T00:06:48.947Z,58.93
2023-10-07T00:11:50.956Z,58.81
2023-10-07T00:16:55.821Z,58.09
2023-10-07T00:22:00.865Z,58.16
2023-10-07T00:27:03.408Z,59.02
2023-10-07T00:32:06.990Z,56.62
2023-10-07T00:37:09.184Z,57.57
2023-10-07T00:42:11.275Z,55.87
2023-10-07T00:47:15.318Z,56.02
2023-10-07T00:52:29.486Z,56.47
2023-10-07T00:57:31.814Z,57.06
2023-10-07T01:02:35.514Z,56.18
2023-10-07T01:07:37.654Z,55.88
2023-10-07T01:12:43.617Z,58.06
2023-10-07T01:17:48.179Z,56.87
2023-10-07T01:23:04.588Z,58.38
2023-10-07T01:28:09.613Z,57.48
2023-10-07T01:33:35.695Z,56.56
2023-10-07T01:38:45.275Z,54.55
2023-10-07T01:44:05.984Z,54.94
2023-10-07T01:49:12.874Z,54.00
2023-10-07T01:54:16.555Z,53.29
2023-10-07T01:59:19.476Z,53.46
2023-10-07T02:04:28.430Z,54.47
2023-10-07T02:09:42.108Z,52.50
2023-10-07T02:14:44.103Z,52.23
2023-10-07T02:19:46.114Z,53.39
2023-10-07T02:25:00.624Z,55.30
2023-10-07T02:30:04.268Z,55.18
2023-10-07T02:35:10.128Z,56.21
2023-10-07T02:40:36.290Z,52.39
2023-10-07T02:45:40.802Z,51.22
2023-10-07T02:50:45.626Z,51.95
2023-10-07T02:55:55.106Z,52.33
2023-10-07T03:01:12.122Z,53.34
2023-10-07T03:06:18.648Z,53.87
2023-10-07T03:11:22.566Z,52.66
2023-10-07T03:16:24.882Z,52.73
2023-10-07T03:21:36.842Z,53.47
2023-10-07T03:26:42.208Z,53.43
2023-10-07T03:31:47.235Z,53.60
2023-10-07T03:37:18.379Z,53.64
2023-10-07T03:42:21.769Z,53.84
2023-10-07T03:47:25.418Z,55.73
2023-10-07T03:52:29.504Z,56.21
2023-10-07T03:57:34.868Z,56.09
2023-10-07T04:02:37.102Z,56.44
2023-10-07T04:07:39.296Z,54.03
2023-10-07T04:12:45.298Z,54.10
2023-10-07T04:17:47.871Z,53.87
2023-10-07T04:23:01.557Z,54.61
2023-10-07T04:28:08.066Z,53.50
2023-10-07T04:33:11.415Z,52.83
2023-10-07T04:38:36.784Z,54.63
2023-10-07T04:43:46.336Z,53.88
2023-10-07T04:48:57.634Z,52.64
2023-10-07T04:54:00.230Z,51.06
2023-10-07T04:59:12.092Z,48.34
2023-10-07T05:04:17.522Z,48.97
2023-10-07T05:09:20.021Z,51.71
2023-10-07T05:14:25.777Z,52.29
2023-10-07T05:19:28.941Z,53.00
2023-10-07T05:24:31.138Z,53.30
2023-10-07T05:29:34.371Z,53.36
2023-10-07T05:34:36.828Z,53.12
2023-10-07T05:39:39.558Z,54.87
2023-10-07T05:44:42.924Z,53.36
2023-10-07T05:49:45.265Z,53.14
2023-10-07T05:54:47.372Z,52.89
2023-10-07T05:59:52.119Z,53.12
2023-10-07T06:04:54.222Z,52.82
2023-10-07T06:09:56.424Z,52.04
2023-10-07T06:15:01.013Z,53.36
2023-10-07T06:20:26.062Z,52.83
2023-10-07T06:25:34.569Z,53.65
2023-10-07T06:30:39.386Z,53.20
2023-10-07T06:35:42.407Z,53.91
2023-10-07T06:40:44.880Z,53.06
2023-10-07T06:45:48.470Z,54.37
2023-10-07T06:50:53.965Z,54.16
2023-10-07T06:55:56.305Z,54.36
2023-10-07T07:01:11.833Z,54.10
2023-10-07T07:06:18.235Z,54.06
2023-10-07T07:11:20.326Z,54.58
2023-10-07T07:16:25.366Z,54.37
2023-10-07T07:21:27.396Z,55.46
2023-10-07T07:26:31.658Z,54.68
2023-10-07T07:31:35.880Z,55.16
2023-10-07T07:36:43.519Z,55.11
2023-10-07T07:41:58.032Z,55.90
2023-10-07T07:47:04.122Z,55.17
2023-10-07T07:52:09.330Z,54.83
2023-10-07T07:57:13.548Z,55.65
2023-10-07T08:02:18.614Z,55.87
2023-10-07T08:07:31.124Z,56.62
2023-10-07T08:12:37.419Z,56.70
2023-10-07T08:17:41.511Z,56.01
2023-10-07T08:22:46.771Z,56.33
2023-10-07T08:27:52.859Z,55.28
2023-10-07T08:32:56.576Z,55.83
2023-10-07T08:38:00.548Z,55.57
2023-10-07T08:43:05.499Z,55.75
2023-10-07T08:48:18.527Z,55.94
2023-10-07T08:53:24.846Z,57.00
2023-10-07T08:58:32.214Z,56.62
2023-10-07T09:03:40.922Z,55.43
2023-10-07T09:08:44.780Z,55.48
2023-10-07T09:13:48.508Z,57.17
2023-10-07T09:18:57.264Z,56.25
2023-10-07T09:24:03.697Z,56.23
2023-10-07T09:29:23.283Z,56.40
2023-10-07T09:34:43.313Z,56.05
2023-10-07T09:39:46.316Z,53.10
2023-10-07T09:44:49.280Z,53.17
2023-10-07T09:49:58.663Z,53.75
2023-10-07T09:55:28.303Z,53.66
2023-10-07T10:00:39.485Z,53.10
2023-10-07T10:06:05.130Z,51.84
2023-10-07T10:11:21.322Z,51.64
2023-10-07T10:16:45.700Z,51.99
2023-10-07T10:21:49.554Z,51.31
2023-10-07T10:26:51.961Z,51.47
2023-10-07T10:31:59.844Z,50.63
2023-10-07T10:37:07.179Z,49.53
2023-10-07T10:42:15.715Z,49.61
2023-10-07T10:47:22.765Z,51.14
2023-10-07T10:52:28.124Z,50.94
2023-10-07T10:57:30.234Z,51.00
2023-10-07T11:02:40.732Z,51.14
2023-10-07T11:07:47.837Z,50.77
2023-10-07T11:12:57.843Z,48.63
2023-10-07T11:18:14.583Z,48.47
2023-10-07T11:23:19.757Z,48.25
2023-10-07T11:28:24.003Z,49.32
2023-10-07T11:33:26.345Z,48.66
2023-10-07T11:38:30.865Z,49.56
2023-10-07T11:43:44.732Z,48.72
2023-10-07T11:48:47.052Z,48.73
2023-10-07T11:53:51.346Z,47.99
2023-10-07T11:58:53.850Z,48.62
2023-10-07T12:03:55.951Z,49.27
2023-10-07T12:09:07.421Z,50.28
2023-10-07T12:14:10.120Z,48.95
2023-10-07T12:19:18.756Z,48.23
2023-10-07T12:24:23.011Z,48.42
2023-10-07T12:29:25.232Z,47.55
2023-10-07T12:34:27.710Z,47.03
2023-10-07T12:39:40.185Z,47.02
2023-10-07T12:44:42.329Z,46.41
2023-10-07T12:49:46.698Z,46.45
2023-10-07T12:54:50.210Z,46.63
2023-10-07T12:59:53.939Z,46.82
2023-10-07T13:04:56.637Z,47.43
2023-10-07T13:10:02.124Z,47.55
2023-10-07T13:15:15.547Z,47.43
2023-10-07T13:20:21.838Z,47.68
2023-10-07T13:25:27.286Z,48.42
2023-10-07T13:30:31.339Z,48.88
2023-10-07T13:35:34.254Z,49.68
2023-10-07T13:40:38.878Z,50.22
2023-10-07T13:45:41.104Z,49.75
2023-10-07T13:50:43.658Z,50.13
2023-10-07T13:55:56.576Z,49.94
2023-10-07T14:00:58.885Z,50.59
2023-10-07T14:06:03.616Z,52.11
2023-10-07T14:11:08.642Z,51.83
2023-10-07T14:21:18.220Z,52.99
2023-10-07T14:26:21.627Z,54.25
2023-10-07T14:31:23.876Z,54.99
2023-10-07T14:36:26.080Z,55.44
2023-10-07T14:41:31.567Z,55.25
2023-10-07T14:46:34.050Z,55.44
2023-10-07T14:51:36.135Z,55.99
2023-10-07T14:56:42.843Z,55.16
2023-10-07T15:01:45.232Z,55.44
2023-10-07T15:06:49.411Z,55.21
2023-10-07T15:11:56.952Z,55.41
2023-10-07T15:16:59.525Z,55.83
2023-10-07T15:22:06.481Z,56.16
2023-10-07T15:27:10.092Z,55.02
2023-10-07T15:32:12.654Z,55.11
2023-10-07T15:37:15.125Z,55.25
2023-10-07T15:42:19.111Z,55.61
2023-10-07T15:47:21.231Z,56.02
2023-10-07T15:52:24.005Z,56.82
2023-10-07T15:57:27.754Z,56.07
2023-10-07T16:02:30.151Z,55.81
2023-10-07T16:07:35.312Z,56.90
2023-10-07T16:12:39.575Z,57.70
2023-10-07T16:17:41.963Z,58.68
2023-10-07T16:22:44.050Z,58.40
2023-10-07T16:27:47.479Z,58.88
2023-10-07T16:32:49.943Z,58.02
2023-10-07T16:37:52.179Z,57.70
2023-10-07T16:42:55.619Z,57.93
2023-10-07T16:47:58.923Z,57.18
2023-10-07T16:53:00.977Z,57.34
2023-10-07T17:03:07.614Z,58.09
2023-10-07T17:08:10.679Z,58.56
2023-10-07T17:13:15.425Z,58.88
2023-10-07T17:18:19.120Z,60.02
2023-10-07T17:23:21.239Z,60.84
2023-10-07T17:28:25.112Z,60.00
2023-10-07T17:33:27.292Z,60.36
2023-10-07T17:38:30.227Z,62.40
2023-10-07T17:43:33.734Z,64.61
2023-10-07T17:48:36.137Z,65.85
2023-10-07T17:53:38.530Z,64.62
2023-10-07T17:58:43.535Z,63.77
2023-10-07T18:03:45.755Z,62.91
2023-10-07T18:08:48.105Z,63.37
2023-10-07T18:13:51.517Z,62.83
2023-10-07T18:18:53.565Z,63.37
2023-10-07T18:23:55.685Z,62.45
2023-10-07T18:29:00.480Z,62.27
2023-10-07T18:34:02.751Z,61.60
2023-10-07T18:39:06.757Z,62.07
2023-10-07T18:44:10.749Z,62.37
2023-10-07T18:49:14.822Z,61.70
2023-10-07T18:54:16.847Z,61.87
2023-10-07T18:59:20.885Z,60.98
2023-10-07T19:04:23.140Z,60.57
2023-10-07T19:09:25.177Z,60.25
2023-10-07T19:14:28.610Z,60.40
2023-10-07T19:19:31.336Z,60.13
2023-10-07T19:24:34.181Z,60.47
2023-10-07T19:29:37.702Z,60.45
2023-10-07T19:34:39.886Z,60.97
2023-10-07T19:39:44.514Z,61.09
2023-10-07T19:44:48.522Z,61.27
2023-10-07T19:49:50.757Z,61.31
2023-10-07T19:54:53.781Z,61.66
2023-10-07T19:59:57.208Z,61.83
2023-10-07T20:04:59.481Z,61.65
2023-10-07T20:10:01.645Z,62.25
2023-10-07T20:15:06.240Z,62.37
2023-10-07T20:20:11.936Z,61.66
2023-10-07T20:25:14.468Z,61.79
2023-10-07T20:30:20.823Z,61.79
2023-10-07T20:35:23.880Z,61.99
2023-10-07T20:40:26.508Z,61.71
2023-10-07T20:45:30.454Z,61.97
2023-10-07T20:50:32.606Z,62.77
2023-10-07T20:55:42.984Z,62.12
2023-10-07T21:00:46.374Z,61.64
2023-10-07T21:05:48.720Z,62.86
2023-10-07T21:10:50.888Z,62.68
2023-10-07T21:15:57.064Z,62.77
2023-10-07T21:20:59.526Z,62.70
2023-10-07T21:26:01.826Z,62.59
2023-10-07T21:31:06.273Z,63.23
2023-10-07T21:36:08.513Z,63.62
2023-10-07T21:41:10.758Z,63.63
2023-10-07T21:46:14.953Z,64.30
2023-10-07T21:51:20.713Z,64.17
2023-10-07T21:56:23.247Z,65.19
2023-10-07T22:01:26.694Z,65.43
2023-10-07T22:06:30.091Z,65.57
2023-10-07T22:11:32.342Z,65.75
2023-10-07T22:16:36.083Z,64.72
2023-10-07T22:21:38.892Z,64.68
2023-10-07T22:26:41.011Z,64.69
2023-10-07T22:31:49.593Z,64.40
2023-10-07T22:36:55.867Z,64.81
2023-10-07T22:41:59.112Z,63.45
2023-10-07T22:47:08.901Z,63.47
2023-10-07T22:52:11.290Z,63.12
2023-10-07T22:57:15.184Z,63.24
2023-10-07T23:02:30.425Z,63.79
2023-10-07T23:07:43.794Z,64.06
2023-10-07T23:12:46.025Z,63.18
2023-10-07T23:17:52.866Z,64.17
2023-10-07T23:22:57.831Z,63.90
2023-10-07T23:28:06.674Z,64.05
2023-10-07T23:33:14.459Z,64.44
2023-10-07T23:38:20.198Z,64.24
2023-10-07T23:43:25.552Z,64.65
2023-10-07T23:48:29.381Z,64.54
2023-10-07T23:53:33.030Z,64.71
2023-10-07T23:58:43.497Z,64.91
